sensor_id;sensor_type;location;lat;lon;timestamp;pressure;altitude;pressure_sealevel;temperature;humidity
967;BME280;56108;48.730;9.304;2022-09-17T00:02:07;97300.88;;;9.14;100.00
967;BME280;56108;48.730;9.304;2022-09-17T00:04:17;97297.56;;;9.10;100.00
967;BME280;56108;48.730;9.304;2022-09-17T00:06:26;97299.03;;;9.02;100.00
967;BME280;56108;48.730;9.304;2022-09-17T00:08:35;97298.94;;;9.03;100.00
967;BME280;56108;48.730;9.304;2022-09-17T00:10:44;97292.03;;;9.01;100.00
967;BME280;56108;48.730;9.304;2022-09-17T00:12:52;97294.16;;;8.96;100.00
967;BME280;56108;48.730;9.304;2022-09-17T00:15:00;97300.94;;;9.00;100.00
967;BME280;56108;48.730;9.304;2022-09-17T00:17:11;97297.53;;;8.98;100.00
967;BME280;56108;48.730;9.304;2022-09-17T00:19:21;97292.22;;;8.98;100.00
967;BME280;56108;48.730;9.304;2022-09-17T00:21:29;97295.56;;;9.14;100.00
967;BME280;56108;48.730;9.304;2022-09-17T00:23:37;97305.66;;;9.09;100.00
967;BME280;56108;48.730;9.304;2022-09-17T00:25:45;97299.03;;;9.02;100.00
967;BME280;56108;48.730;9.304;2022-09-17T00:27:56;97304.03;;;9.06;100.00
967;BME280;56108;48.730;9.304;2022-09-17T00:30:05;97305.66;;;9.09;100.00
967;BME280;56108;48.730;9.304;2022-09-17T00:32:16;97309.34;;;9.06;100.00
967;BME280;56108;48.730;9.304;2022-09-17T00:34:24;97323.75;;;9.02;100.00
967;BME280;56108;48.730;9.304;2022-09-17T00:36:34;97325.03;;;8.97;100.00
967;BME280;56108;48.730;9.304;2022-09-17T00:38:42;97310.09;;;9.08;100.00
967;BME280;56108;48.730;9.304;2022-09-17T00:40:50;97323.88;;;9.01;100.00
967;BME280;56108;48.730;9.304;2022-09-17T00:42:58;97324.94;;;8.98;100.00
967;BME280;56108;48.730;9.304;2022-09-17T00:45:08;97322.91;;;9.02;100.00
967;BME280;56108;48.730;9.304;2022-09-17T00:47:24;97318.91;;;9.09;100.00
967;BME280;56108;48.730;9.304;2022-09-17T00:49:33;97322.06;;;9.01;100.00
967;BME280;56108;48.730;9.304;2022-09-17T00:51:48;97328.34;;;9.00;100.00
967;BME280;56108;48.730;9.304;2022-09-17T00:54:07;97311.56;;;9.00;100.00
967;BME280;56108;48.730;9.304;2022-09-17T00:56:22;97316.22;;;8.96;100.00
967;BME280;56108;48.730;9.304;2022-09-17T00:58:33;97325.88;;;8.97;100.00
967;BME280;56108;48.730;9.304;2022-09-17T01:00:45;97319.00;;;8.95;100.00
967;BME280;56108;48.730;9.304;2022-09-17T01:02:56;97326.00;;;8.96;100.00
967;BME280;56108;48.730;9.304;2022-09-17T01:05:06;97323.22;;;8.97;100.00
967;BME280;56108;48.730;9.304;2022-09-17T01:07:29;97328.69;;;9.08;100.00
967;BME280;56108;48.730;9.304;2022-09-17T01:09:46;97332.06;;;9.10;100.00
967;BME280;56108;48.730;9.304;2022-09-17T01:12:10;97331.09;;;8.99;100.00
967;BME280;56108;48.730;9.304;2022-09-17T01:14:37;97318.22;;;8.93;100.00
967;BME280;56108;48.730;9.304;2022-09-17T01:16:56;97316.41;;;8.80;100.00
967;BME280;56108;48.730;9.304;2022-09-17T01:21:55;97320.19;;;8.63;100.00
967;BME280;56108;48.730;9.304;2022-09-17T01:24:49;97318.91;;;8.56;100.00
967;BME280;56108;48.730;9.304;2022-09-17T01:27:17;97327.78;;;8.55;100.00
967;BME280;56108;48.730;9.304;2022-09-17T01:29:42;97325.25;;;8.54;100.00
967;BME280;56108;48.730;9.304;2022-09-17T01:32:06;97326.91;;;8.42;100.00
967;BME280;56108;48.730;9.304;2022-09-17T01:34:21;97326.25;;;8.39;100.00
967;BME280;56108;48.730;9.304;2022-09-17T01:36:44;97333.44;;;8.36;100.00
967;BME280;56108;48.730;9.304;2022-09-17T01:39:02;97321.50;;;8.29;100.00
967;BME280;56108;48.730;9.304;2022-09-17T01:41:23;97326.06;;;8.27;100.00
967;BME280;56108;48.730;9.304;2022-09-17T01:43:41;97329.16;;;8.34;100.00
967;BME280;56108;48.730;9.304;2022-09-17T01:45:56;97325.78;;;8.18;100.00
967;BME280;56108;48.730;9.304;2022-09-17T01:48:12;97328.84;;;8.11;100.00
967;BME280;56108;48.730;9.304;2022-09-17T01:50:26;97332.53;;;8.09;100.00
967;BME280;56108;48.730;9.304;2022-09-17T01:52:39;97328.53;;;8.16;100.00
967;BME280;56108;48.730;9.304;2022-09-17T01:54:55;97340.09;;;8.15;100.00
967;BME280;56108;48.730;9.304;2022-09-17T01:57:08;97333.63;;;8.19;100.00
967;BME280;56108;48.730;9.304;2022-09-17T01:59:22;97333.34;;;8.24;100.00
967;BME280;56108;48.730;9.304;2022-09-17T02:01:32;97333.59;;;8.33;100.00
967;BME280;56108;48.730;9.304;2022-09-17T02:03:48;97337.81;;;8.38;100.00
967;BME280;56108;48.730;9.304;2022-09-17T02:06:03;97342.41;;;8.48;100.00
967;BME280;56108;48.730;9.304;2022-09-17T02:08:15;97348.56;;;8.49;100.00
967;BME280;56108;48.730;9.304;2022-09-17T02:10:28;97347.72;;;8.48;100.00
967;BME280;56108;48.730;9.304;2022-09-17T02:12:41;97347.00;;;8.59;100.00
967;BME280;56108;48.730;9.304;2022-09-17T02:14:53;97348.25;;;8.80;100.00
967;BME280;56108;48.730;9.304;2022-09-17T02:17:07;97350.59;;;8.85;100.00
967;BME280;56108;48.730;9.304;2022-09-17T02:19:22;97349.34;;;8.91;100.00
967;BME280;56108;48.730;9.304;2022-09-17T02:21:39;97358.13;;;8.91;100.00
967;BME280;56108;48.730;9.304;2022-09-17T02:24:00;97350.06;;;8.93;100.00
967;BME280;56108;48.730;9.304;2022-09-17T02:26:16;97354.88;;;8.87;100.00
967;BME280;56108;48.730;9.304;2022-09-17T02:28:30;97347.84;;;8.86;100.00
967;BME280;56108;48.730;9.304;2022-09-17T02:30:41;97350.47;;;8.86;100.00
967;BME280;56108;48.730;9.304;2022-09-17T02:32:50;97352.25;;;8.73;100.00
967;BME280;56108;48.730;9.304;2022-09-17T02:35:00;97338.31;;;8.57;100.00
967;BME280;56108;48.730;9.304;2022-09-17T02:37:11;97341.25;;;8.52;100.00
967;BME280;56108;48.730;9.304;2022-09-17T02:39:19;97341.25;;;8.52;100.00
967;BME280;56108;48.730;9.304;2022-09-17T02:41:36;97338.59;;;8.52;100.00
967;BME280;56108;48.730;9.304;2022-09-17T02:43:53;97339.63;;;8.50;100.00
967;BME280;56108;48.730;9.304;2022-09-17T02:46:16;97333.34;;;8.38;100.00
967;BME280;56108;48.730;9.304;2022-09-17T02:48:42;97337.81;;;8.38;100.00
967;BME280;56108;48.730;9.304;2022-09-17T02:51:10;97334.44;;;8.34;100.00
967;BME280;56108;48.730;9.304;2022-09-17T02:53:37;97338.06;;;8.33;100.00
967;BME280;56108;48.730;9.304;2022-09-17T02:55:51;97334.09;;;8.40;100.00
967;BME280;56108;48.730;9.304;2022-09-17T02:58:16;97335.59;;;8.44;100.00
967;BME280;56108;48.730;9.304;2022-09-17T03:00:26;97324.69;;;8.49;100.00
967;BME280;56108;48.730;9.304;2022-09-17T03:02:39;97323.31;;;8.56;100.00
967;BME280;56108;48.730;9.304;2022-09-17T03:04:50;97328.25;;;8.62;100.00
967;BME280;56108;48.730;9.304;2022-09-17T03:07:04;97321.88;;;8.65;100.00
967;BME280;56108;48.730;9.304;2022-09-17T03:09:14;97326.03;;;8.69;100.00
967;BME280;56108;48.730;9.304;2022-09-17T03:11:25;97334.84;;;8.69;100.00
967;BME280;56108;48.730;9.304;2022-09-17T03:13:34;97334.19;;;8.66;100.00
967;BME280;56108;48.730;9.304;2022-09-17T03:15:43;97330.25;;;8.58;100.00
967;BME280;56108;48.730;9.304;2022-09-17T03:17:52;97326.94;;;8.55;100.00
967;BME280;56108;48.730;9.304;2022-09-17T03:20:00;97336.66;;;8.42;100.00
967;BME280;56108;48.730;9.304;2022-09-17T03:22:11;97331.34;;;8.27;100.00
967;BME280;56108;48.730;9.304;2022-09-17T03:24:19;97333.56;;;8.21;100.00
967;BME280;56108;48.730;9.304;2022-09-17T03:26:27;97328.88;;;8.24;100.00
967;BME280;56108;48.730;9.304;2022-09-17T03:28:36;97330.78;;;8.22;100.00
967;BME280;56108;48.730;9.304;2022-09-17T03:30:46;97329.22;;;8.20;100.00
967;BME280;56108;48.730;9.304;2022-09-17T03:32:54;97327.41;;;8.20;100.00
967;BME280;56108;48.730;9.304;2022-09-17T03:35:02;97330.69;;;8.24;100.00
967;BME280;56108;48.730;9.304;2022-09-17T03:37:13;97331.59;;;8.10;100.00
967;BME280;56108;48.730;9.304;2022-09-17T03:39:21;97339.84;;;8.05;100.00
967;BME280;56108;48.730;9.304;2022-09-17T03:41:29;97339.38;;;7.99;100.00
967;BME280;56108;48.730;9.304;2022-09-17T03:43:37;97339.75;;;7.93;100.00
967;BME280;56108;48.730;9.304;2022-09-17T03:45:45;97351.00;;;7.96;100.00
967;BME280;56108;48.730;9.304;2022-09-17T03:47:54;97339.94;;;8.04;100.00
967;BME280;56108;48.730;9.304;2022-09-17T03:50:02;97343.03;;;8.10;100.00
967;BME280;56108;48.730;9.304;2022-09-17T03:52:13;97344.34;;;8.18;100.00
967;BME280;56108;48.730;9.304;2022-09-17T03:54:22;97337.34;;;8.17;100.00
967;BME280;56108;48.730;9.304;2022-09-17T03:56:30;97355.78;;;8.18;100.00
967;BME280;56108;48.730;9.304;2022-09-17T03:58:38;97345.19;;;8.18;100.00
967;BME280;56108;48.730;9.304;2022-09-17T04:00:47;97352.19;;;8.19;100.00
967;BME280;56108;48.730;9.304;2022-09-17T04:03:01;97344.78;;;8.24;100.00
967;BME280;56108;48.730;9.304;2022-09-17T04:05:09;97351.16;;;8.36;100.00
967;BME280;56108;48.730;9.304;2022-09-17T04:07:20;97348.28;;;8.39;100.00
967;BME280;56108;48.730;9.304;2022-09-17T04:09:28;97356.16;;;8.26;100.00
967;BME280;56108;48.730;9.304;2022-09-17T04:11:39;97356.94;;;8.14;100.00
967;BME280;56108;48.730;9.304;2022-09-17T04:13:47;97349.19;;;8.11;100.00
967;BME280;56108;48.730;9.304;2022-09-17T04:15:55;97352.88;;;8.08;100.00
967;BME280;56108;48.730;9.304;2022-09-17T04:18:03;97356.59;;;8.06;100.00
967;BME280;56108;48.730;9.304;2022-09-17T04:20:13;97363.56;;;8.07;100.00
967;BME280;56108;48.730;9.304;2022-09-17T04:22:24;97352.78;;;8.10;100.00
967;BME280;56108;48.730;9.304;2022-09-17T04:24:32;97356.28;;;8.10;100.00
967;BME280;56108;48.730;9.304;2022-09-17T04:26:40;97352.19;;;8.19;100.00
967;BME280;56108;48.730;9.304;2022-09-17T04:28:48;97360.53;;;8.13;100.00
967;BME280;56108;48.730;9.304;2022-09-17T04:30:56;97361.50;;;8.12;100.00
967;BME280;56108;48.730;9.304;2022-09-17T04:33:04;97365.75;;;8.15;100.00
967;BME280;56108;48.730;9.304;2022-09-17T04:35:13;97361.03;;;8.20;100.00
967;BME280;56108;48.730;9.304;2022-09-17T04:37:23;97363.47;;;8.23;100.00
967;BME280;56108;48.730;9.304;2022-09-17T04:39:32;97375.00;;;8.22;100.00
967;BME280;56108;48.730;9.304;2022-09-17T04:41:41;97379.38;;;8.23;100.00
967;BME280;56108;48.730;9.304;2022-09-17T04:43:49;97385.34;;;8.26;100.00
967;BME280;56108;48.730;9.304;2022-09-17T04:45:57;97388.53;;;8.31;100.00
967;BME280;56108;48.730;9.304;2022-09-17T04:48:05;97396.03;;;8.39;100.00
967;BME280;56108;48.730;9.304;2022-09-17T04:50:13;97398.09;;;8.48;100.00
967;BME280;56108;48.730;9.304;2022-09-17T04:52:24;97402.81;;;8.57;99.95
967;BME280;56108;48.730;9.304;2022-09-17T04:54:34;97407.06;;;8.60;99.52
967;BME280;56108;48.730;9.304;2022-09-17T04:56:42;97402.59;;;8.60;98.65
967;BME280;56108;48.730;9.304;2022-09-17T04:58:50;97401.97;;;8.57;98.33
967;BME280;56108;48.730;9.304;2022-09-17T05:00:58;97395.72;;;8.58;98.26
967;BME280;56108;48.730;9.304;2022-09-17T05:03:07;97414.72;;;8.65;97.28
967;BME280;56108;48.730;9.304;2022-09-17T05:05:16;97413.00;;;8.78;97.06
967;BME280;56108;48.730;9.304;2022-09-17T05:07:28;97416.56;;;8.77;96.14
967;BME280;56108;48.730;9.304;2022-09-17T05:09:36;97420.28;;;8.74;96.37
967;BME280;56108;48.730;9.304;2022-09-17T05:11:43;97421.13;;;8.75;96.27
967;BME280;56108;48.730;9.304;2022-09-17T05:13:51;97421.97;;;8.75;95.99
967;BME280;56108;48.730;9.304;2022-09-17T05:15:59;97424.16;;;8.83;96.12
967;BME280;56108;48.730;9.304;2022-09-17T05:18:08;97417.34;;;8.79;96.15
967;BME280;56108;48.730;9.304;2022-09-17T05:20:17;97421.88;;;8.77;96.32
967;BME280;56108;48.730;9.304;2022-09-17T05:22:27;97427.84;;;8.80;96.12
967;BME280;56108;48.730;9.304;2022-09-17T05:24:35;97422.13;;;8.86;95.49
967;BME280;56108;48.730;9.304;2022-09-17T05:26:44;97425.84;;;8.84;95.75
967;BME280;56108;48.730;9.304;2022-09-17T05:28:52;97417.53;;;8.76;95.48
967;BME280;56108;48.730;9.304;2022-09-17T05:31:00;97426.16;;;8.79;95.33
967;BME280;56108;48.730;9.304;2022-09-17T05:33:09;97419.88;;;8.80;95.75
967;BME280;56108;48.730;9.304;2022-09-17T05:35:17;97422.91;;;8.88;94.67
967;BME280;56108;48.730;9.304;2022-09-17T05:37:28;97430.66;;;8.92;94.13
967;BME280;56108;48.730;9.304;2022-09-17T05:39:36;97431.97;;;8.99;93.55
967;BME280;56108;48.730;9.304;2022-09-17T05:41:45;97432.50;;;9.04;93.26
967;BME280;56108;48.730;9.304;2022-09-17T05:43:53;97434.09;;;9.06;93.34
967;BME280;56108;48.730;9.304;2022-09-17T05:46:02;97432.22;;;9.08;93.46
967;BME280;56108;48.730;9.304;2022-09-17T05:48:12;97421.19;;;9.14;93.31
967;BME280;56108;48.730;9.304;2022-09-17T05:50:20;97429.16;;;9.27;92.96
967;BME280;56108;48.730;9.304;2022-09-17T05:52:31;97437.47;;;9.35;92.27
967;BME280;56108;48.730;9.304;2022-09-17T05:54:39;97435.50;;;9.52;91.46
967;BME280;56108;48.730;9.304;2022-09-17T05:56:47;97440.38;;;9.71;90.61
967;BME280;56108;48.730;9.304;2022-09-17T05:58:59;97441.03;;;9.61;89.69
967;BME280;56108;48.730;9.304;2022-09-17T06:01:07;97435.19;;;9.56;89.49
967;BME280;56108;48.730;9.304;2022-09-17T06:03:20;97441.56;;;9.66;89.18
967;BME280;56108;48.730;9.304;2022-09-17T06:05:29;97447.00;;;10.03;88.51
967;BME280;56108;48.730;9.304;2022-09-17T06:07:39;97449.34;;;10.20;87.09
967;BME280;56108;48.730;9.304;2022-09-17T06:09:47;97448.59;;;10.31;85.67
967;BME280;56108;48.730;9.304;2022-09-17T06:11:55;97458.91;;;10.36;85.13
967;BME280;56108;48.730;9.304;2022-09-17T06:14:03;97456.47;;;10.45;85.29
967;BME280;56108;48.730;9.304;2022-09-17T06:16:11;97463.34;;;10.61;84.82
967;BME280;56108;48.730;9.304;2022-09-17T06:18:19;97462.38;;;10.62;84.06
967;BME280;56108;48.730;9.304;2022-09-17T06:20:27;97464.44;;;10.45;84.24
967;BME280;56108;48.730;9.304;2022-09-17T06:22:35;97464.09;;;10.63;84.78
967;BME280;56108;48.730;9.304;2022-09-17T06:24:46;97459.84;;;10.48;84.24
967;BME280;56108;48.730;9.304;2022-09-17T06:26:55;97463.88;;;10.53;84.91
967;BME280;56108;48.730;9.304;2022-09-17T06:29:03;97466.25;;;10.45;84.78
967;BME280;56108;48.730;9.304;2022-09-17T06:31:12;97465.81;;;10.38;84.71
967;BME280;56108;48.730;9.304;2022-09-17T06:33:21;97460.94;;;10.32;84.83
967;BME280;56108;48.730;9.304;2022-09-17T06:35:30;97462.00;;;10.42;85.87
967;BME280;56108;48.730;9.304;2022-09-17T06:37:39;97469.25;;;10.40;84.44
967;BME280;56108;48.730;9.304;2022-09-17T06:39:49;97470.31;;;10.25;85.31
967;BME280;56108;48.730;9.304;2022-09-17T06:41:58;97473.38;;;10.32;86.14
967;BME280;56108;48.730;9.304;2022-09-17T06:44:09;97474.69;;;10.26;86.24
967;BME280;56108;48.730;9.304;2022-09-17T06:46:17;97472.00;;;10.26;86.16
967;BME280;56108;48.730;9.304;2022-09-17T06:48:26;97468.78;;;10.21;86.48
967;BME280;56108;48.730;9.304;2022-09-17T06:50:34;97480.41;;;10.33;86.75
967;BME280;56108;48.730;9.304;2022-09-17T06:52:47;97477.22;;;10.28;86.25
967;BME280;56108;48.730;9.304;2022-09-17T06:54:59;97479.44;;;10.21;85.04
967;BME280;56108;48.730;9.304;2022-09-17T06:57:17;97471.34;;;10.10;85.69
967;BME280;56108;48.730;9.304;2022-09-17T06:59:25;97483.25;;;10.17;85.73
967;BME280;56108;48.730;9.304;2022-09-17T07:01:34;97478.28;;;10.25;85.86
967;BME280;56108;48.730;9.304;2022-09-17T07:03:42;97483.31;;;10.30;85.15
967;BME280;56108;48.730;9.304;2022-09-17T07:05:53;97482.53;;;10.15;85.21
967;BME280;56108;48.730;9.304;2022-09-17T07:08:02;97478.91;;;10.03;85.77
967;BME280;56108;48.730;9.304;2022-09-17T07:10:20;97482.31;;;9.92;85.26
967;BME280;56108;48.730;9.304;2022-09-17T07:12:39;97484.31;;;9.89;86.87
967;BME280;56108;48.730;9.304;2022-09-17T07:14:53;97486.25;;;10.00;87.01
967;BME280;56108;48.730;9.304;2022-09-17T07:17:04;97487.13;;;10.13;87.40
967;BME280;56108;48.730;9.304;2022-09-17T07:19:18;97488.63;;;10.30;87.42
967;BME280;56108;48.730;9.304;2022-09-17T07:21:33;97492.84;;;10.19;85.84
967;BME280;56108;48.730;9.304;2022-09-17T07:23:41;97496.88;;;10.00;86.67
967;BME280;56108;48.730;9.304;2022-09-17T07:25:56;97496.88;;;9.87;87.53
967;BME280;56108;48.730;9.304;2022-09-17T07:28:04;97494.84;;;9.90;87.38
967;BME280;56108;48.730;9.304;2022-09-17T07:30:12;97498.84;;;9.71;88.58
967;BME280;56108;48.730;9.304;2022-09-17T07:32:21;97502.56;;;9.68;89.40
967;BME280;56108;48.730;9.304;2022-09-17T07:34:29;97514.03;;;9.56;91.70
967;BME280;56108;48.730;9.304;2022-09-17T07:36:37;97510.72;;;9.52;93.76
967;BME280;56108;48.730;9.304;2022-09-17T07:38:46;97505.28;;;9.41;95.44
967;BME280;56108;48.730;9.304;2022-09-17T07:41:01;97514.53;;;9.21;96.06
967;BME280;56108;48.730;9.304;2022-09-17T07:43:10;97514.09;;;9.14;98.18
967;BME280;56108;48.730;9.304;2022-09-17T07:45:21;97505.78;;;9.06;99.20
967;BME280;56108;48.730;9.304;2022-09-17T07:47:29;97507.69;;;9.04;100.00
967;BME280;56108;48.730;9.304;2022-09-17T07:49:37;97507.84;;;9.15;100.00
967;BME280;56108;48.730;9.304;2022-09-17T07:51:45;97510.34;;;9.31;100.00
967;BME280;56108;48.730;9.304;2022-09-17T07:53:54;97512.84;;;9.60;100.00
967;BME280;56108;48.730;9.304;2022-09-17T07:56:06;97513.94;;;9.70;100.00
967;BME280;56108;48.730;9.304;2022-09-17T07:58:15;97514.94;;;10.07;100.00
967;BME280;56108;48.730;9.304;2022-09-17T08:00:24;97519.78;;;10.28;99.55
967;BME280;56108;48.730;9.304;2022-09-17T08:02:32;97525.31;;;10.50;98.59
967;BME280;56108;48.730;9.304;2022-09-17T08:04:41;97541.28;;;10.37;97.98
967;BME280;56108;48.730;9.304;2022-09-17T08:06:50;97540.13;;;10.29;97.85
967;BME280;56108;48.730;9.304;2022-09-17T08:08:58;97533.91;;;10.15;98.96
967;BME280;56108;48.730;9.304;2022-09-17T08:11:11;97532.94;;;10.04;99.15
967;BME280;56108;48.730;9.304;2022-09-17T08:13:40;97536.94;;;9.97;99.13
967;BME280;56108;48.730;9.304;2022-09-17T08:15:48;97533.00;;;9.89;99.33
967;BME280;56108;48.730;9.304;2022-09-17T08:17:56;97533.75;;;9.91;99.67
967;BME280;56108;48.730;9.304;2022-09-17T08:20:05;97540.16;;;10.02;100.00
967;BME280;56108;48.730;9.304;2022-09-17T08:22:14;97545.38;;;10.16;99.48
967;BME280;56108;48.730;9.304;2022-09-17T08:24:22;97542.13;;;10.25;98.56
967;BME280;56108;48.730;9.304;2022-09-17T08:26:32;97534.31;;;10.22;98.44
967;BME280;56108;48.730;9.304;2022-09-17T08:28:43;97537.44;;;10.41;98.01
967;BME280;56108;48.730;9.304;2022-09-17T08:30:52;97540.00;;;10.43;96.72
967;BME280;56108;48.730;9.304;2022-09-17T08:33:00;97535.41;;;10.58;95.58
967;BME280;56108;48.730;9.304;2022-09-17T08:35:08;97538.06;;;10.58;94.68
967;BME280;56108;48.730;9.304;2022-09-17T08:37:16;97538.47;;;10.64;95.32
967;BME280;56108;48.730;9.304;2022-09-17T08:39:24;97539.03;;;10.57;92.88
967;BME280;56108;48.730;9.304;2022-09-17T08:41:44;97548.72;;;10.58;94.44
967;BME280;56108;48.730;9.304;2022-09-17T08:44:06;97538.69;;;10.74;93.81
967;BME280;56108;48.730;9.304;2022-09-17T08:46:18;97546.94;;;10.95;92.89
967;BME280;56108;48.730;9.304;2022-09-17T08:48:33;97545.38;;;10.92;91.77
967;BME280;56108;48.730;9.304;2022-09-17T08:50:43;97553.31;;;11.05;91.47
967;BME280;56108;48.730;9.304;2022-09-17T08:53:04;97555.91;;;11.31;91.00
967;BME280;56108;48.730;9.304;2022-09-17T08:55:22;97562.66;;;11.47;89.54
967;BME280;56108;48.730;9.304;2022-09-17T08:57:42;97556.94;;;11.65;89.42
967;BME280;56108;48.730;9.304;2022-09-17T08:59:58;97563.28;;;11.75;86.82
967;BME280;56108;48.730;9.304;2022-09-17T09:02:19;97562.22;;;12.48;84.32
967;BME280;56108;48.730;9.304;2022-09-17T09:04:45;97553.97;;;12.96;80.60
967;BME280;56108;48.730;9.304;2022-09-17T09:07:01;97555.50;;;13.43;78.33
967;BME280;56108;48.730;9.304;2022-09-17T09:09:13;97554.16;;;13.15;77.24
967;BME280;56108;48.730;9.304;2022-09-17T09:11:25;97555.72;;;13.51;76.95
967;BME280;56108;48.730;9.304;2022-09-17T09:13:39;97551.94;;;13.54;76.28
967;BME280;56108;48.730;9.304;2022-09-17T09:15:54;97556.34;;;13.44;75.91
967;BME280;56108;48.730;9.304;2022-09-17T09:18:15;97553.06;;;13.83;75.12
967;BME280;56108;48.730;9.304;2022-09-17T09:20:27;97547.03;;;13.70;72.91
967;BME280;56108;48.730;9.304;2022-09-17T09:22:46;97537.22;;;13.92;73.69
967;BME280;56108;48.730;9.304;2022-09-17T09:25:02;97549.22;;;13.97;73.97
967;BME280;56108;48.730;9.304;2022-09-17T09:27:16;97558.47;;;13.93;72.39
967;BME280;56108;48.730;9.304;2022-09-17T09:29:35;97546.78;;;14.05;72.67
967;BME280;56108;48.730;9.304;2022-09-17T09:32:06;97550.78;;;13.79;73.23
967;BME280;56108;48.730;9.304;2022-09-17T09:34:21;97551.69;;;13.57;74.14
967;BME280;56108;48.730;9.304;2022-09-17T09:36:31;97545.53;;;13.45;74.23
967;BME280;56108;48.730;9.304;2022-09-17T09:38:45;97534.91;;;13.87;74.86
967;BME280;56108;48.730;9.304;2022-09-17T09:40:59;97548.50;;;13.95;74.51
967;BME280;56108;48.730;9.304;2022-09-17T09:43:15;97543.13;;;13.74;73.17
967;BME280;56108;48.730;9.304;2022-09-17T09:45:38;97542.81;;;13.68;73.25
967;BME280;56108;48.730;9.304;2022-09-17T09:47:55;97544.56;;;14.10;71.83
967;BME280;56108;48.730;9.304;2022-09-17T09:50:21;97540.03;;;13.90;71.71
967;BME280;56108;48.730;9.304;2022-09-17T09:53:02;97543.72;;;13.78;72.12
967;BME280;56108;48.730;9.304;2022-09-17T09:55:22;97544.69;;;13.45;72.81
967;BME280;56108;48.730;9.304;2022-09-17T09:57:40;97546.84;;;13.51;73.63
967;BME280;56108;48.730;9.304;2022-09-17T09:59:50;97556.59;;;13.18;72.82
967;BME280;56108;48.730;9.304;2022-09-17T10:02:01;97557.97;;;13.01;73.61
967;BME280;56108;48.730;9.304;2022-09-17T10:04:16;97551.31;;;12.85;76.23
967;BME280;56108;48.730;9.304;2022-09-17T10:06:27;97552.66;;;12.79;74.99
967;BME280;56108;48.730;9.304;2022-09-17T10:08:38;97546.81;;;12.74;74.87
967;BME280;56108;48.730;9.304;2022-09-17T10:10:58;97545.56;;;12.78;75.71
967;BME280;56108;48.730;9.304;2022-09-17T10:13:11;97540.00;;;12.70;75.66
967;BME280;56108;48.730;9.304;2022-09-17T10:15:26;97548.47;;;12.52;76.48
967;BME280;56108;48.730;9.304;2022-09-17T10:17:37;97547.19;;;12.69;76.54
967;BME280;56108;48.730;9.304;2022-09-17T10:19:46;97551.78;;;12.90;75.29
967;BME280;56108;48.730;9.304;2022-09-17T10:22:18;97546.81;;;12.85;75.79
967;BME280;56108;48.730;9.304;2022-09-17T10:24:29;97548.25;;;13.00;76.81
967;BME280;56108;48.730;9.304;2022-09-17T10:26:39;97551.66;;;13.02;75.79
967;BME280;56108;48.730;9.304;2022-09-17T10:28:49;97550.25;;;13.53;74.13
967;BME280;56108;48.730;9.304;2022-09-17T10:30:59;97552.56;;;13.57;72.00
967;BME280;56108;48.730;9.304;2022-09-17T10:33:20;97559.88;;;14.08;70.39
967;BME280;56108;48.730;9.304;2022-09-17T10:35:30;97553.53;;;15.43;67.05
967;BME280;56108;48.730;9.304;2022-09-17T10:37:42;97563.16;;;16.81;62.03
967;BME280;56108;48.730;9.304;2022-09-17T10:39:51;97576.78;;;17.07;57.75
967;BME280;56108;48.730;9.304;2022-09-17T10:42:01;97584.69;;;17.64;56.17
967;BME280;56108;48.730;9.304;2022-09-17T10:44:16;97581.91;;;17.56;57.54
967;BME280;56108;48.730;9.304;2022-09-17T10:46:26;97591.50;;;17.58;55.21
967;BME280;56108;48.730;9.304;2022-09-17T10:48:43;97578.69;;;16.87;56.95
967;BME280;56108;48.730;9.304;2022-09-17T10:50:52;97575.28;;;16.85;57.59
967;BME280;56108;48.730;9.304;2022-09-17T10:53:05;97577.41;;;16.91;55.31
967;BME280;56108;48.730;9.304;2022-09-17T10:55:22;97565.59;;;16.36;57.08
967;BME280;56108;48.730;9.304;2022-09-17T10:57:44;97575.63;;;16.34;57.40
967;BME280;56108;48.730;9.304;2022-09-17T11:00:07;97571.97;;;15.86;57.45
967;BME280;56108;48.730;9.304;2022-09-17T11:05:22;97560.72;;;15.43;61.29
967;BME280;56108;48.730;9.304;2022-09-17T11:07:42;97553.97;;;15.08;59.79
967;BME280;56108;48.730;9.304;2022-09-17T11:09:59;97546.63;;;14.70;61.46
967;BME280;56108;48.730;9.304;2022-09-17T11:12:24;97542.81;;;14.93;61.05
967;BME280;56108;48.730;9.304;2022-09-17T11:14:47;97550.41;;;15.38;58.36
967;BME280;56108;48.730;9.304;2022-09-17T11:17:01;97544.41;;;15.75;58.34
967;BME280;56108;48.730;9.304;2022-09-17T11:19:19;97542.56;;;16.33;58.55
967;BME280;56108;48.730;9.304;2022-09-17T11:21:40;97561.81;;;16.19;54.71
967;BME280;56108;48.730;9.304;2022-09-17T11:27:00;97552.94;;;16.75;54.09
967;BME280;56108;48.730;9.304;2022-09-17T11:29:33;97569.00;;;16.28;52.97
967;BME280;56108;48.730;9.304;2022-09-17T11:31:53;97564.63;;;15.79;52.99
967;BME280;56108;48.730;9.304;2022-09-17T11:34:25;97557.47;;;15.39;55.93
967;BME280;56108;48.730;9.304;2022-09-17T11:36:45;97554.13;;;15.56;57.63
967;BME280;56108;48.730;9.304;2022-09-17T11:38:58;97554.03;;;15.68;57.14
967;BME280;56108;48.730;9.304;2022-09-17T11:41:15;97545.00;;;15.78;55.60
967;BME280;56108;48.730;9.304;2022-09-17T11:43:26;97532.25;;;15.71;58.29
967;BME280;56108;48.730;9.304;2022-09-17T11:45:37;97538.63;;;15.79;57.34
967;BME280;56108;48.730;9.304;2022-09-17T11:47:50;97544.16;;;15.28;55.10
967;BME280;56108;48.730;9.304;2022-09-17T11:50:05;97549.97;;;15.33;54.78
967;BME280;56108;48.730;9.304;2022-09-17T11:52:27;97545.41;;;15.24;55.19
967;BME280;56108;48.730;9.304;2022-09-17T11:54:39;97542.41;;;15.07;56.01
967;BME280;56108;48.730;9.304;2022-09-17T11:56:52;97531.38;;;15.41;56.58
967;BME280;56108;48.730;9.304;2022-09-17T11:59:07;97532.50;;;15.48;55.90
967;BME280;56108;48.730;9.304;2022-09-17T12:01:23;97538.47;;;15.61;54.69
967;BME280;56108;48.730;9.304;2022-09-17T12:03:36;97528.44;;;16.02;55.07
967;BME280;56108;48.730;9.304;2022-09-17T12:05:51;97542.44;;;16.15;53.53
967;BME280;56108;48.730;9.304;2022-09-17T12:08:10;97555.97;;;16.33;51.43
967;BME280;56108;48.730;9.304;2022-09-17T12:10:37;97550.66;;;15.95;51.47
967;BME280;56108;48.730;9.304;2022-09-17T12:12:53;97523.78;;;15.56;54.59